sensor_id;sensor_type;location;lat;lon;timestamp;pressure;altitude;pressure_sealevel;temperature;humidity
74079;BME280;62437;51.544;-3.276;2023-04-23T00:00:39;99443.29;;;6.52;68.01
74079;BME280;62437;51.544;-3.276;2023-04-23T00:03:07;99440.78;;;6.39;70.68
74079;BME280;62437;51.544;-3.276;2023-04-23T00:05:32;99442.31;;;6.68;70.76
74079;BME280;62437;51.544;-3.276;2023-04-23T00:07:58;99441.27;;;6.62;70.81
74079;BME280;62437;51.544;-3.276;2023-04-23T00:10:23;99437.66;;;6.50;70.67
74079;BME280;62437;51.544;-3.276;2023-04-23T00:12:48;99433.40;;;6.17;70.81
74079;BME280;62437;51.544;-3.276;2023-04-23T00:15:14;99434.39;;;6.24;71.29
74079;BME280;62437;51.544;-3.276;2023-04-23T00:17:39;99435.76;;;6.06;71.98
74079;BME280;62437;51.544;-3.276;2023-04-23T00:20:06;99433.23;;;5.94;73.14
74079;BME280;62437;51.544;-3.276;2023-04-23T00:22:30;99430.28;;;5.36;73.82
74079;BME280;62437;51.544;-3.276;2023-04-23T00:24:56;99429.90;;;5.40;74.26
74079;BME280;62437;51.544;-3.276;2023-04-23T00:27:23;99427.85;;;5.29;74.43
74079;BME280;62437;51.544;-3.276;2023-04-23T00:29:48;99426.14;;;5.78;73.77
74079;BME280;62437;51.544;-3.276;2023-04-23T00:32:13;99427.30;;;5.93;72.49
74079;BME280;62437;51.544;-3.276;2023-04-23T00:34:39;99429.83;;;5.97;73.26
74079;BME280;62437;51.544;-3.276;2023-04-23T00:37:05;99428.60;;;5.73;72.83
74079;BME280;62437;51.544;-3.276;2023-04-23T00:39:31;99432.74;;;6.73;70.47
74079;BME280;62437;51.544;-3.276;2023-04-23T00:41:56;99431.60;;;6.79;69.61
74079;BME280;62437;51.544;-3.276;2023-04-23T00:44:22;99430.56;;;5.46;73.22
74079;BME280;62437;51.544;-3.276;2023-04-23T00:46:49;99432.14;;;6.84;70.15
74079;BME280;62437;51.544;-3.276;2023-04-23T00:49:14;99428.62;;;5.98;71.98
74079;BME280;62437;51.544;-3.276;2023-04-23T00:51:41;99425.54;;;6.02;73.69
74079;BME280;62437;51.544;-3.276;2023-04-23T00:54:05;99423.52;;;6.29;70.31
74079;BME280;62437;51.544;-3.276;2023-04-23T00:56:31;99419.54;;;6.28;72.04
74079;BME280;62437;51.544;-3.276;2023-04-23T00:58:56;99421.61;;;5.73;73.73
74079;BME280;62437;51.544;-3.276;2023-04-23T01:01:22;99422.07;;;6.26;71.67
74079;BME280;62437;51.544;-3.276;2023-04-23T01:03:48;99419.95;;;6.15;70.77
74079;BME280;62437;51.544;-3.276;2023-04-23T01:06:15;99422.98;;;5.93;72.45
74079;BME280;62437;51.544;-3.276;2023-04-23T01:08:40;99425.28;;;6.06;72.32
74079;BME280;62437;51.544;-3.276;2023-04-23T01:11:06;99425.13;;;6.02;71.68
74079;BME280;62437;51.544;-3.276;2023-04-23T01:13:30;99424.96;;;5.48;73.30
74079;BME280;62437;51.544;-3.276;2023-04-23T01:15:56;99426.47;;;5.92;72.05
74079;BME280;62437;51.544;-3.276;2023-04-23T01:18:22;99430.80;;;6.49;69.95
74079;BME280;62437;51.544;-3.276;2023-04-23T01:20:48;99432.76;;;6.07;71.42
74079;BME280;62437;51.544;-3.276;2023-04-23T01:23:14;99435.27;;;6.71;69.45
74079;BME280;62437;51.544;-3.276;2023-04-23T01:25:39;99439.54;;;6.87;68.87
74079;BME280;62437;51.544;-3.276;2023-04-23T01:28:05;99438.43;;;6.31;70.39
74079;BME280;62437;51.544;-3.276;2023-04-23T01:30:31;99435.64;;;6.54;68.67
74079;BME280;62437;51.544;-3.276;2023-04-23T01:32:56;99434.48;;;5.91;70.89
74079;BME280;62437;51.544;-3.276;2023-04-23T01:35:22;99437.14;;;5.85;69.80
74079;BME280;62437;51.544;-3.276;2023-04-23T01:37:49;99437.85;;;6.24;69.20
74079;BME280;62437;51.544;-3.276;2023-04-23T01:40:14;99435.25;;;8.09;63.09
74079;BME280;62437;51.544;-3.276;2023-04-23T01:42:39;99438.74;;;6.91;66.80
74079;BME280;62437;51.544;-3.276;2023-04-23T01:45:06;99441.58;;;6.31;68.91
74079;BME280;62437;51.544;-3.276;2023-04-23T01:47:33;99441.58;;;6.50;70.70
74079;BME280;62437;51.544;-3.276;2023-04-23T01:49:56;99445.60;;;6.01;70.57
74079;BME280;62437;51.544;-3.276;2023-04-23T01:52:22;99448.17;;;6.10;70.97
74079;BME280;62437;51.544;-3.276;2023-04-23T01:54:48;99444.31;;;5.77;71.57
74079;BME280;62437;51.544;-3.276;2023-04-23T01:57:14;99444.21;;;5.35;72.27
74079;BME280;62437;51.544;-3.276;2023-04-23T01:59:41;99442.70;;;5.63;72.64
74079;BME280;62437;51.544;-3.276;2023-04-23T02:02:05;99445.40;;;5.60;72.06
74079;BME280;62437;51.544;-3.276;2023-04-23T02:04:31;99445.39;;;5.91;71.42
74079;BME280;62437;51.544;-3.276;2023-04-23T02:06:56;99445.86;;;5.82;71.46
74079;BME280;62437;51.544;-3.276;2023-04-23T02:09:22;99446.09;;;6.15;71.31
74079;BME280;62437;51.544;-3.276;2023-04-23T02:11:48;99444.43;;;5.76;71.71
74079;BME280;62437;51.544;-3.276;2023-04-23T02:14:14;99445.27;;;5.52;71.80
74079;BME280;62437;51.544;-3.276;2023-04-23T02:16:39;99444.60;;;5.76;71.71
74079;BME280;62437;51.544;-3.276;2023-04-23T02:19:05;99448.98;;;5.43;72.13
74079;BME280;62437;51.544;-3.276;2023-04-23T02:21:31;99443.62;;;5.43;72.25
74079;BME280;62437;51.544;-3.276;2023-04-23T02:23:58;99441.76;;;5.89;71.31
74079;BME280;62437;51.544;-3.276;2023-04-23T02:26:22;99444.14;;;5.62;71.37
74079;BME280;62437;51.544;-3.276;2023-04-23T02:28:48;99445.58;;;5.53;71.97
74079;BME280;62437;51.544;-3.276;2023-04-23T02:31:14;99447.29;;;5.79;71.18
74079;BME280;62437;51.544;-3.276;2023-04-23T02:33:40;99453.08;;;5.86;71.28
74079;BME280;62437;51.544;-3.276;2023-04-23T02:36:06;99449.51;;;5.78;71.73
74079;BME280;62437;51.544;-3.276;2023-04-23T02:38:31;99452.97;;;5.68;71.96
74079;BME280;62437;51.544;-3.276;2023-04-23T02:40:57;99455.66;;;5.70;72.15
74079;BME280;62437;51.544;-3.276;2023-04-23T02:43:22;99456.68;;;5.50;72.16
74079;BME280;62437;51.544;-3.276;2023-04-23T02:45:48;99450.88;;;5.48;72.39
74079;BME280;62437;51.544;-3.276;2023-04-23T02:48:14;99447.88;;;5.75;71.58
74079;BME280;62437;51.544;-3.276;2023-04-23T02:50:40;99447.92;;;5.69;71.67
74079;BME280;62437;51.544;-3.276;2023-04-23T02:53:05;99446.30;;;5.29;72.44
74079;BME280;62437;51.544;-3.276;2023-04-23T02:55:31;99448.77;;;5.81;71.82
74079;BME280;62437;51.544;-3.276;2023-04-23T02:57:57;99449.65;;;5.79;72.26
74079;BME280;62437;51.544;-3.276;2023-04-23T03:00:23;99449.67;;;5.74;71.14
74079;BME280;62437;51.544;-3.276;2023-04-23T03:02:48;99450.08;;;5.38;72.25
74079;BME280;62437;51.544;-3.276;2023-04-23T03:05:14;99451.28;;;5.55;72.34
74079;BME280;62437;51.544;-3.276;2023-04-23T03:07:40;99455.56;;;5.75;71.49
74079;BME280;62437;51.544;-3.276;2023-04-23T03:10:06;99450.55;;;5.70;71.09
74079;BME280;62437;51.544;-3.276;2023-04-23T03:12:31;99449.53;;;5.61;71.28
74079;BME280;62437;51.544;-3.276;2023-04-23T03:14:57;99446.18;;;5.65;70.63
74079;BME280;62437;51.544;-3.276;2023-04-23T03:17:23;99446.71;;;5.86;70.41
74079;BME280;62437;51.544;-3.276;2023-04-23T03:19:48;99443.79;;;6.02;69.85
74079;BME280;62437;51.544;-3.276;2023-04-23T03:22:14;99444.87;;;5.65;71.22
74079;BME280;62437;51.544;-3.276;2023-04-23T03:24:40;99445.32;;;5.61;70.99
74079;BME280;62437;51.544;-3.276;2023-04-23T03:27:07;99443.03;;;6.32;68.38
74079;BME280;62437;51.544;-3.276;2023-04-23T03:29:31;99442.97;;;6.30;68.49
74079;BME280;62437;51.544;-3.276;2023-04-23T03:31:57;99445.54;;;6.07;69.01
74079;BME280;62437;51.544;-3.276;2023-04-23T03:34:23;99446.46;;;6.19;66.83
74079;BME280;62437;51.544;-3.276;2023-04-23T03:36:48;99442.07;;;6.30;67.78
74079;BME280;62437;51.544;-3.276;2023-04-23T03:39:14;99441.62;;;5.54;70.58
74079;BME280;62437;51.544;-3.276;2023-04-23T03:41:40;99442.81;;;6.67;67.40
74079;BME280;62437;51.544;-3.276;2023-04-23T03:44:06;99442.42;;;6.13;69.09
74079;BME280;62437;51.544;-3.276;2023-04-23T03:46:31;99446.31;;;6.18;67.87
74079;BME280;62437;51.544;-3.276;2023-04-23T03:48:57;99449.50;;;5.70;70.41
74079;BME280;62437;51.544;-3.276;2023-04-23T03:51:23;99449.45;;;5.50;70.92
74079;BME280;62437;51.544;-3.276;2023-04-23T03:53:48;99449.71;;;6.35;69.03
74079;BME280;62437;51.544;-3.276;2023-04-23T03:56:14;99449.47;;;5.82;68.90
74079;BME280;62437;51.544;-3.276;2023-04-23T03:58:41;99452.32;;;5.37;70.82
74079;BME280;62437;51.544;-3.276;2023-04-23T04:01:06;99455.55;;;5.82;69.51
74079;BME280;62437;51.544;-3.276;2023-04-23T04:03:32;99453.44;;;6.18;65.97
74079;BME280;62437;51.544;-3.276;2023-04-23T04:05:57;99456.92;;;6.16;69.88
74079;BME280;62437;51.544;-3.276;2023-04-23T04:08:23;99454.73;;;7.02;64.31
74079;BME280;62437;51.544;-3.276;2023-04-23T04:10:49;99444.87;;;6.08;68.91
74079;BME280;62437;51.544;-3.276;2023-04-23T04:13:14;99439.23;;;6.35;67.46
74079;BME280;62437;51.544;-3.276;2023-04-23T04:15:40;99439.09;;;5.31;71.02
74079;BME280;62437;51.544;-3.276;2023-04-23T04:18:06;99437.69;;;5.55;69.75
74079;BME280;62437;51.544;-3.276;2023-04-23T04:20:31;99438.72;;;5.66;69.58
74079;BME280;62437;51.544;-3.276;2023-04-23T04:22:57;99437.64;;;9.41;54.60
74079;BME280;62437;51.544;-3.276;2023-04-23T04:25:23;99438.62;;;8.81;58.12
74079;BME280;62437;51.544;-3.276;2023-04-23T04:27:49;99447.51;;;6.75;66.39
74079;BME280;62437;51.544;-3.276;2023-04-23T04:30:14;99441.73;;;6.10;67.09
74079;BME280;62437;51.544;-3.276;2023-04-23T04:32:42;99441.45;;;5.46;69.30
74079;BME280;62437;51.544;-3.276;2023-04-23T04:35:07;99440.54;;;5.33;70.09
74079;BME280;62437;51.544;-3.276;2023-04-23T04:37:32;99444.85;;;5.61;69.30
74079;BME280;62437;51.544;-3.276;2023-04-23T04:39:57;99449.56;;;6.59;66.66
74079;BME280;62437;51.544;-3.276;2023-04-23T04:42:23;99443.81;;;6.24;67.63
74079;BME280;62437;51.544;-3.276;2023-04-23T04:44:49;99439.35;;;5.15;69.67
74079;BME280;62437;51.544;-3.276;2023-04-23T04:47:14;99436.87;;;5.25;70.10
74079;BME280;62437;51.544;-3.276;2023-04-23T04:49:40;99437.42;;;5.05;70.01
74079;BME280;62437;51.544;-3.276;2023-04-23T04:52:06;99439.13;;;5.33;68.76
74079;BME280;62437;51.544;-3.276;2023-04-23T04:54:32;99441.06;;;5.37;69.40
74079;BME280;62437;51.544;-3.276;2023-04-23T04:56:57;99439.02;;;5.11;68.45
74079;BME280;62437;51.544;-3.276;2023-04-23T04:59:25;99437.84;;;5.06;69.55
74079;BME280;62437;51.544;-3.276;2023-04-23T05:01:49;99434.91;;;4.67;69.65
74079;BME280;62437;51.544;-3.276;2023-04-23T05:04:15;99438.59;;;4.55;70.55
74079;BME280;62437;51.544;-3.276;2023-04-23T05:06:40;99439.14;;;4.17;71.43
74079;BME280;62437;51.544;-3.276;2023-04-23T05:09:06;99439.28;;;4.25;71.47
74079;BME280;62437;51.544;-3.276;2023-04-23T05:11:32;99440.52;;;4.97;70.09
74079;BME280;62437;51.544;-3.276;2023-04-23T05:13:59;99440.50;;;4.33;70.74
74079;BME280;62437;51.544;-3.276;2023-04-23T05:16:23;99438.93;;;4.15;71.05
74079;BME280;62437;51.544;-3.276;2023-04-23T05:18:49;99437.11;;;4.16;71.59
74079;BME280;62437;51.544;-3.276;2023-04-23T05:21:15;99435.53;;;3.86;71.50
74079;BME280;62437;51.544;-3.276;2023-04-23T05:23:41;99442.04;;;3.93;71.36
74079;BME280;62437;51.544;-3.276;2023-04-23T05:26:06;99442.33;;;4.57;70.82
74079;BME280;62437;51.544;-3.276;2023-04-23T05:28:32;99439.77;;;4.63;69.78
74079;BME280;62437;51.544;-3.276;2023-04-23T05:30:58;99436.01;;;4.29;71.19
74079;BME280;62437;51.544;-3.276;2023-04-23T05:33:25;99439.01;;;3.99;71.84
74079;BME280;62437;51.544;-3.276;2023-04-23T05:35:50;99441.47;;;4.17;72.29
74079;BME280;62437;51.544;-3.276;2023-04-23T05:38:15;99441.65;;;4.01;71.62
74079;BME280;62437;51.544;-3.276;2023-04-23T05:40:41;99441.59;;;4.30;71.22
74079;BME280;62437;51.544;-3.276;2023-04-23T05:43:08;99439.84;;;3.93;71.68
74079;BME280;62437;51.544;-3.276;2023-04-23T05:45:32;99441.03;;;4.31;71.59
74079;BME280;62437;51.544;-3.276;2023-04-23T05:48:00;99438.63;;;4.75;70.51
74079;BME280;62437;51.544;-3.276;2023-04-23T05:50:24;99435.50;;;4.33;72.19
74079;BME280;62437;51.544;-3.276;2023-04-23T05:52:49;99439.14;;;4.50;72.71
74079;BME280;62437;51.544;-3.276;2023-04-23T05:55:15;99439.66;;;4.25;73.11
74079;BME280;62437;51.544;-3.276;2023-04-23T05:57:41;99439.60;;;4.42;72.96
74079;BME280;62437;51.544;-3.276;2023-04-23T06:00:09;99440.89;;;4.68;72.33
74079;BME280;62437;51.544;-3.276;2023-04-23T06:02:33;99443.04;;;4.49;72.49
74079;BME280;62437;51.544;-3.276;2023-04-23T06:04:58;99442.99;;;4.16;73.57
74079;BME280;62437;51.544;-3.276;2023-04-23T06:07:24;99440.56;;;4.23;75.17
74079;BME280;62437;51.544;-3.276;2023-04-23T06:09:50;99442.75;;;4.84;73.59
74079;BME280;62437;51.544;-3.276;2023-04-23T06:12:16;99440.18;;;4.43;73.78
74079;BME280;62437;51.544;-3.276;2023-04-23T06:14:41;99441.61;;;4.75;74.55
74079;BME280;62437;51.544;-3.276;2023-04-23T06:17:07;99443.62;;;3.93;76.37
74079;BME280;62437;51.544;-3.276;2023-04-23T06:19:33;99447.31;;;4.09;76.66
74079;BME280;62437;51.544;-3.276;2023-04-23T06:21:58;99450.18;;;4.29;76.83
74079;BME280;62437;51.544;-3.276;2023-04-23T06:24:24;99451.99;;;4.95;74.93
74079;BME280;62437;51.544;-3.276;2023-04-23T06:26:50;99456.79;;;4.77;75.58
74079;BME280;62437;51.544;-3.276;2023-04-23T06:29:15;99456.78;;;4.91;74.65
74079;BME280;62437;51.544;-3.276;2023-04-23T06:31:41;99452.31;;;5.00;74.54
74079;BME280;62437;51.544;-3.276;2023-04-23T06:34:07;99455.57;;;4.62;75.59
74079;BME280;62437;51.544;-3.276;2023-04-23T06:36:33;99458.70;;;4.45;77.23
74079;BME280;62437;51.544;-3.276;2023-04-23T06:38:58;99461.44;;;4.77;77.08
74079;BME280;62437;51.544;-3.276;2023-04-23T06:41:24;99463.45;;;5.35;76.71
74079;BME280;62437;51.544;-3.276;2023-04-23T06:43:50;99461.93;;;5.41;75.20
74079;BME280;62437;51.544;-3.276;2023-04-23T06:46:16;99464.31;;;6.83;71.17
74079;BME280;62437;51.544;-3.276;2023-04-23T06:48:41;99462.19;;;7.15;67.60
74079;BME280;62437;51.544;-3.276;2023-04-23T06:51:07;99464.38;;;6.10;71.39
74079;BME280;62437;51.544;-3.276;2023-04-23T06:53:33;99463.60;;;6.91;68.28
74079;BME280;62437;51.544;-3.276;2023-04-23T06:55:58;99464.35;;;5.88;71.38
74079;BME280;62437;51.544;-3.276;2023-04-23T06:58:24;99467.89;;;5.69;71.26
74079;BME280;62437;51.544;-3.276;2023-04-23T07:00:50;99467.01;;;5.07;72.68
74079;BME280;62437;51.544;-3.276;2023-04-23T07:03:15;99469.54;;;4.93;73.16
74079;BME280;62437;51.544;-3.276;2023-04-23T07:05:41;99465.69;;;5.91;71.12
74079;BME280;62437;51.544;-3.276;2023-04-23T07:08:07;99467.66;;;6.81;69.64
74079;BME280;62437;51.544;-3.276;2023-04-23T07:10:34;99460.69;;;9.12;60.72
74079;BME280;62437;51.544;-3.276;2023-04-23T07:12:58;99461.90;;;9.20;61.32
74079;BME280;62437;51.544;-3.276;2023-04-23T07:15:24;99460.23;;;10.15;55.05
74079;BME280;62437;51.544;-3.276;2023-04-23T07:17:50;99460.67;;;8.77;62.19
74079;BME280;62437;51.544;-3.276;2023-04-23T07:20:16;99459.28;;;9.36;59.65
74079;BME280;62437;51.544;-3.276;2023-04-23T07:22:41;99461.01;;;7.53;67.32
74079;BME280;62437;51.544;-3.276;2023-04-23T07:25:08;99461.10;;;8.02;64.30
74079;BME280;62437;51.544;-3.276;2023-04-23T07:27:33;99466.29;;;6.76;70.10
74079;BME280;62437;51.544;-3.276;2023-04-23T07:29:58;99461.67;;;9.76;57.42
74079;BME280;62437;51.544;-3.276;2023-04-23T07:32:24;99469.75;;;6.59;69.62
74079;BME280;62437;51.544;-3.276;2023-04-23T07:34:50;99470.30;;;6.76;68.57
74079;BME280;62437;51.544;-3.276;2023-04-23T07:37:16;99471.12;;;6.04;70.87
74079;BME280;62437;51.544;-3.276;2023-04-23T07:39:41;99471.61;;;6.08;71.66
74079;BME280;62437;51.544;-3.276;2023-04-23T07:42:07;99470.25;;;6.00;69.26
74079;BME280;62437;51.544;-3.276;2023-04-23T07:44:32;99472.38;;;5.72;71.69
74079;BME280;62437;51.544;-3.276;2023-04-23T07:46:59;99471.80;;;5.69;70.61
74079;BME280;62437;51.544;-3.276;2023-04-23T07:49:24;99472.69;;;5.49;72.18
74079;BME280;62437;51.544;-3.276;2023-04-23T07:51:50;99473.02;;;5.44;70.72
74079;BME280;62437;51.544;-3.276;2023-04-23T07:54:15;99471.76;;;5.58;71.35
74079;BME280;62437;51.544;-3.276;2023-04-23T07:56:41;99475.57;;;6.09;70.91
74079;BME280;62437;51.544;-3.276;2023-04-23T07:59:07;99475.67;;;6.58;70.28
74079;BME280;62437;51.544;-3.276;2023-04-23T08:01:34;99477.53;;;7.60;65.91
74079;BME280;62437;51.544;-3.276;2023-04-23T08:03:58;99480.15;;;6.67;71.30
74079;BME280;62437;51.544;-3.276;2023-04-23T08:06:24;99479.84;;;6.06;66.24
74079;BME280;62437;51.544;-3.276;2023-04-23T08:08:49;99479.52;;;6.67;69.40
74079;BME280;62437;51.544;-3.276;2023-04-23T08:11:15;99482.86;;;6.12;67.32
74079;BME280;62437;51.544;-3.276;2023-04-23T08:13:41;99482.19;;;5.92;73.14
74079;BME280;62437;51.544;-3.276;2023-04-23T08:16:07;99480.83;;;6.73;70.04
74079;BME280;62437;51.544;-3.276;2023-04-23T08:18:32;99477.60;;;6.48;70.08
74079;BME280;62437;51.544;-3.276;2023-04-23T08:20:58;99476.90;;;6.60;69.65
74079;BME280;62437;51.544;-3.276;2023-04-23T08:23:24;99476.81;;;7.02;68.80
74079;BME280;62437;51.544;-3.276;2023-04-23T08:25:50;99479.34;;;6.96;67.23
74079;BME280;62437;51.544;-3.276;2023-04-23T08:28:16;99478.40;;;7.42;67.49
74079;BME280;62437;51.544;-3.276;2023-04-23T08:30:41;99479.15;;;6.01;69.98
74079;BME280;62437;51.544;-3.276;2023-04-23T08:33:06;99485.37;;;5.44;69.52
74079;BME280;62437;51.544;-3.276;2023-04-23T08:35:32;99483.25;;;5.49;69.96
74079;BME280;62437;51.544;-3.276;2023-04-23T08:37:58;99481.69;;;5.86;71.17
74079;BME280;62437;51.544;-3.276;2023-04-23T08:40:25;99477.28;;;6.46;67.84
74079;BME280;62437;51.544;-3.276;2023-04-23T08:42:56;99477.98;;;8.00;65.99
74079;BME280;62437;51.544;-3.276;2023-04-23T08:45:16;99479.07;;;7.30;65.07
74079;BME280;62437;51.544;-3.276;2023-04-23T08:47:41;99478.39;;;6.85;64.97
74079;BME280;62437;51.544;-3.276;2023-04-23T08:50:09;99482.84;;;6.97;65.67
74079;BME280;62437;51.544;-3.276;2023-04-23T08:52:33;99484.47;;;7.26;67.94
74079;BME280;62437;51.544;-3.276;2023-04-23T08:55:00;99481.50;;;7.56;67.32
74079;BME280;62437;51.544;-3.276;2023-04-23T08:57:24;99484.82;;;7.68;65.74
74079;BME280;62437;51.544;-3.276;2023-04-23T08:59:49;99481.96;;;6.50;67.75
74079;BME280;62437;51.544;-3.276;2023-04-23T09:02:16;99482.16;;;7.03;71.15
74079;BME280;62437;51.544;-3.276;2023-04-23T09:04:41;99477.87;;;7.08;63.96
74079;BME280;62437;51.544;-3.276;2023-04-23T09:07:06;99477.55;;;8.09;64.82
74079;BME280;62437;51.544;-3.276;2023-04-23T09:09:33;99482.15;;;7.19;61.39
74079;BME280;62437;51.544;-3.276;2023-04-23T09:11:59;99482.73;;;7.12;65.77
74079;BME280;62437;51.544;-3.276;2023-04-23T09:14:24;99476.63;;;6.78;67.49
74079;BME280;62437;51.544;-3.276;2023-04-23T09:16:49;99479.34;;;6.91;65.79
74079;BME280;62437;51.544;-3.276;2023-04-23T09:19:15;99476.91;;;8.90;64.80
74079;BME280;62437;51.544;-3.276;2023-04-23T09:21:41;99478.93;;;7.58;63.34
74079;BME280;62437;51.544;-3.276;2023-04-23T09:24:08;99477.98;;;7.29;66.14
74079;BME280;62437;51.544;-3.276;2023-04-23T09:26:31;99472.96;;;6.72;59.76
74079;BME280;62437;51.544;-3.276;2023-04-23T09:28:58;99478.98;;;7.11;61.76
74079;BME280;62437;51.544;-3.276;2023-04-23T09:31:23;99476.82;;;7.77;63.78
74079;BME280;62437;51.544;-3.276;2023-04-23T09:33:50;99475.81;;;7.30;60.04
74079;BME280;62437;51.544;-3.276;2023-04-23T09:36:14;99475.18;;;6.96;58.44
74079;BME280;62437;51.544;-3.276;2023-04-23T09:38:40;99474.29;;;8.04;57.34
74079;BME280;62437;51.544;-3.276;2023-04-23T09:43:31;99476.98;;;6.75;56.23
74079;BME280;62437;51.544;-3.276;2023-04-23T09:45:57;99473.48;;;6.86;58.66
74079;BME280;62437;51.544;-3.276;2023-04-23T09:48:22;99474.14;;;7.83;53.27
74079;BME280;62437;51.544;-3.276;2023-04-23T09:50:48;99470.57;;;7.64;54.02
74079;BME280;62437;51.544;-3.276;2023-04-23T09:53:14;99466.20;;;8.47;57.86
74079;BME280;62437;51.544;-3.276;2023-04-23T09:55:40;99463.05;;;8.07;56.37
74079;BME280;62437;51.544;-3.276;2023-04-23T09:58:10;99460.42;;;10.06;58.53
74079;BME280;62437;51.544;-3.276;2023-04-23T10:00:33;99458.09;;;9.49;50.50
74079;BME280;62437;51.544;-3.276;2023-04-23T10:02:58;99457.08;;;9.92;52.84
74079;BME280;62437;51.544;-3.276;2023-04-23T10:05:22;99460.66;;;9.53;51.11
74079;BME280;62437;51.544;-3.276;2023-04-23T10:07:48;99462.80;;;9.06;48.84
74079;BME280;62437;51.544;-3.276;2023-04-23T10:10:14;99467.91;;;8.09;51.32
74079;BME280;62437;51.544;-3.276;2023-04-23T10:12:39;99473.85;;;8.03;55.48
74079;BME280;62437;51.544;-3.276;2023-04-23T10:15:07;99475.36;;;7.98;57.74
74079;BME280;62437;51.544;-3.276;2023-04-23T10:17:31;99474.06;;;7.48;62.41
74079;BME280;62437;51.544;-3.276;2023-04-23T10:19:57;99475.86;;;7.43;63.31
74079;BME280;62437;51.544;-3.276;2023-04-23T10:22:22;99474.03;;;7.37;58.47
74079;BME280;62437;51.544;-3.276;2023-04-23T10:24:51;99477.91;;;7.07;65.28
74079;BME280;62437;51.544;-3.276;2023-04-23T10:27:14;99477.43;;;7.32;60.68
74079;BME280;62437;51.544;-3.276;2023-04-23T10:29:39;99481.09;;;7.53;64.33
74079;BME280;62437;51.544;-3.276;2023-04-23T10:32:05;99482.83;;;7.38;62.93
74079;BME280;62437;51.544;-3.276;2023-04-23T10:34:31;99485.43;;;7.46;66.65
74079;BME280;62437;51.544;-3.276;2023-04-23T10:36:57;99486.56;;;7.16;59.58
74079;BME280;62437;51.544;-3.276;2023-04-23T10:39:25;99486.61;;;7.27;66.70
74079;BME280;62437;51.544;-3.276;2023-04-23T10:41:47;99489.85;;;7.39;66.40
74079;BME280;62437;51.544;-3.276;2023-04-23T10:44:13;99488.34;;;7.26;60.39
74079;BME280;62437;51.544;-3.276;2023-04-23T10:46:39;99486.61;;;6.75;62.26
74079;BME280;62437;51.544;-3.276;2023-04-23T10:49:06;99493.60;;;7.15;61.57
74079;BME280;62437;51.544;-3.276;2023-04-23T10:51:32;99492.57;;;7.00;59.18
74079;BME280;62437;51.544;-3.276;2023-04-23T10:53:56;99491.42;;;6.98;57.82
74079;BME280;62437;51.544;-3.276;2023-04-23T10:56:21;99494.37;;;7.10;63.88
74079;BME280;62437;51.544;-3.276;2023-04-23T10:58:47;99498.04;;;7.49;65.46
74079;BME280;62437;51.544;-3.276;2023-04-23T11:01:13;99490.28;;;8.98;63.67
74079;BME280;62437;51.544;-3.276;2023-04-23T11:03:39;99490.23;;;6.94;59.22
74079;BME280;62437;51.544;-3.276;2023-04-23T11:06:05;99494.49;;;7.46;60.54
74079;BME280;62437;51.544;-3.276;2023-04-23T11:08:30;99488.68;;;6.92;62.42
74079;BME280;62437;51.544;-3.276;2023-04-23T11:10:56;99490.55;;;7.29;61.53
74079;BME280;62437;51.544;-3.276;2023-04-23T11:13:23;99486.49;;;7.85;57.61
74079;BME280;62437;51.544;-3.276;2023-04-23T11:15:47;99482.41;;;8.10;58.58
74079;BME280;62437;51.544;-3.276;2023-04-23T11:18:12;99480.97;;;8.38;60.73
74079;BME280;62437;51.544;-3.276;2023-04-23T11:20:39;99480.39;;;9.51;56.42
74079;BME280;62437;51.544;-3.276;2023-04-23T11:23:05;99480.91;;;8.77;55.21
74079;BME280;62437;51.544;-3.276;2023-04-23T11:25:29;99479.60;;;8.83;57.02
74079;BME280;62437;51.544;-3.276;2023-04-23T11:27:56;99484.78;;;9.66;60.41
74079;BME280;62437;51.544;-3.276;2023-04-23T11:30:22;99494.20;;;8.18;59.19
74079;BME280;62437;51.544;-3.276;2023-04-23T11:32:48;99496.81;;;8.59;58.43
74079;BME280;62437;51.544;-3.276;2023-04-23T11:35:13;99501.49;;;7.27;62.79
74079;BME280;62437;51.544;-3.276;2023-04-23T11:37:39;99506.82;;;7.14;66.55
74079;BME280;62437;51.544;-3.276;2023-04-23T11:40:06;99508.71;;;8.00;65.77
74079;BME280;62437;51.544;-3.276;2023-04-23T11:42:29;99510.45;;;7.16;65.69
74079;BME280;62437;51.544;-3.276;2023-04-23T11:44:55;99509.55;;;7.16;64.80
74079;BME280;62437;51.544;-3.276;2023-04-23T11:47:20;99510.14;;;7.07;65.07
74079;BME280;62437;51.544;-3.276;2023-04-23T11:49:47;99515.19;;;7.36;63.79
74079;BME280;62437;51.544;-3.276;2023-04-23T11:52:13;99513.23;;;7.16;63.78
74079;BME280;62437;51.544;-3.276;2023-04-23T11:54:39;99516.22;;;7.32;64.31
74079;BME280;62437;51.544;-3.276;2023-04-23T11:57:03;99520.10;;;7.45;63.68
74079;BME280;62437;51.544;-3.276;2023-04-23T11:59:29;99517.06;;;7.85;59.89
74079;BME280;62437;51.544;-3.276;2023-04-23T12:01:56;99515.26;;;7.84;61.69
74079;BME280;62437;51.544;-3.276;2023-04-23T12:04:22;99510.84;;;8.98;60.74
74079;BME280;62437;51.544;-3.276;2023-04-23T12:06:47;99508.93;;;9.01;59.66
74079;BME280;62437;51.544;-3.276;2023-04-23T12:09:13;99509.05;;;9.44;56.72
74079;BME280;62437;51.544;-3.276;2023-04-23T12:11:38;99509.21;;;10.21;56.24
74079;BME280;62437;51.544;-3.276;2023-04-23T12:14:03;99513.12;;;8.26;59.18
74079;BME280;62437;51.544;-3.276;2023-04-23T12:16:33;99514.04;;;8.71;61.14
74079;BME280;62437;51.544;-3.276;2023-04-23T12:18:54;99507.83;;;9.49;61.85
74079;BME280;62437;51.544;-3.276;2023-04-23T12:21:20;99506.61;;;8.61;59.57
74079;BME280;62437;51.544;-3.276;2023-04-23T12:23:50;99511.75;;;8.42;61.52
74079;BME280;62437;51.544;-3.276;2023-04-23T12:26:12;99505.40;;;8.85;59.33
74079;BME280;62437;51.544;-3.276;2023-04-23T12:28:45;99508.68;;;8.15;60.96
74079;BME280;62437;51.544;-3.276;2023-04-23T12:31:03;99504.55;;;10.11;62.92
74079;BME280;62437;51.544;-3.276;2023-04-23T12:33:29;99501.78;;;8.65;61.12
74079;BME280;62437;51.544;-3.276;2023-04-23T12:35:54;99507.75;;;8.61;62.43
74079;BME280;62437;51.544;-3.276;2023-04-23T12:38:21;99506.78;;;8.59;59.91
74079;BME280;62437;51.544;-3.276;2023-04-23T12:40:45;99508.94;;;9.99;60.63
74079;BME280;62437;51.544;-3.276;2023-04-23T12:43:11;99516.04;;;8.90;60.12
74079;BME280;62437;51.544;-3.276;2023-04-23T12:45:37;99537.34;;;8.25;62.31
74079;BME280;62437;51.544;-3.276;2023-04-23T12:48:02;99552.02;;;8.32;63.99
74079;BME280;62437;51.544;-3.276;2023-04-23T12:50:28;99553.38;;;6.92;66.17
74079;BME280;62437;51.544;-3.276;2023-04-23T12:52:54;99568.37;;;6.23;69.78